KLFK/LFK METAR and TAF weather

Enter ICAO airport designator
Station Type Date Time Source
KLFK METAR 2019/12/13 16:53 UTC NOAA

KLFK 131653Z AUTO 19003KT 10SM CLR 15/11 A2992 RMK AO2 SLP131 T01500106


Station Type Date Time Source
KLFK Decoded METAR 2019/12/13 16:53 UTC NOAA

LUFKIN ANGELINA COUNTY AIRPORT , TX, United States (KLFK) 31-14N 94-45W 88M
Dec 13, 2019 - 11:53 AM EST / 2019.12.13 1653 UTC
Wind: from the S (190 degrees) at 3 MPH (3 KT):0
Visibility: 10 mile(s):0
Sky conditions: clear
Temperature: 59.0 F (15.0 C)
Dew Point: 51.1 F (10.6 C)
Relative Humidity: 74%
Pressure (altimeter): 29.92 in. Hg (1013 hPa)
ob: KLFK 131653Z AUTO 19003KT 10SM CLR 15/11 A2992 RMK AO2 SLP131 T01500106
cycle: 17

Station Type Date Time Source
KLFK TAF 2019/12/13 13:18 UTC NOAA

TAF
AMD KLFK 131314Z 1313/1412 14003KT P6SM OVC035
FM131500 20006KT P6SM OVC025
FM132100 27003KT P6SM BKN035 BKN250
FM140000 33004KT P6SM BKN035 BKN250
FM140900 31004KT 5SM BR FEW015

Example: see airport list